Warden, Louisiana
Current Conditions -  °F | °C
As of 2:55 AM on Saturday 22 Nov 2014 (Local Time) from KBQP Reporting Station
Overcast Overcast  
Wind Chill: 57°   Ceiling: 7000
Heat Index: 57°   Visibility: 10mi
Dew Point: 49°   Wind: 0mph
Humidity: 75%   Direction: NA
Pressure: 30.26"   Gusts: NA
Location:  32.4445°N, 91.5289°W
Report Text: KBQP 220855Z AUTO 00000KT 10SM OVC070 14/10 A3026 RMK AO2 LTG DSNT W T01400096
Loading
Personal Weather Stations






























Interactive Weather Map New forecast layout! Learn more

10-Day Weather Forecast

Advertisements
Track Severe Weather on mobile